createdAt,value
2024-01-18T00:00:48.299Z,985.22
2024-01-18T00:01:48.231Z,985.28
2024-01-18T00:02:48.197Z,985.29
2024-01-18T00:03:48.261Z,985.27
2024-01-18T00:04:48.176Z,985.27
2024-01-18T00:05:48.236Z,985.24
2024-01-18T00:06:48.318Z,985.25
2024-01-18T00:07:48.145Z,985.24
2024-01-18T00:08:48.148Z,985.26
2024-01-18T00:09:48.124Z,985.34
2024-01-18T00:10:48.119Z,985.38
2024-01-18T00:11:48.319Z,985.35
2024-01-18T00:12:48.131Z,985.33
2024-01-18T00:13:48.084Z,985.32
2024-01-18T00:14:48.095Z,985.33
2024-01-18T00:15:48.058Z,985.32
2024-01-18T00:16:48.061Z,985.36
2024-01-18T00:17:48.122Z,985.38
2024-01-18T00:18:48.155Z,985.34
2024-01-18T00:19:48.071Z,985.33
2024-01-18T00:20:48.006Z,985.34
2024-01-18T00:21:48.019Z,985.39
2024-01-18T00:22:48.015Z,985.38
2024-01-18T00:23:47.972Z,985.35
2024-01-18T00:24:47.964Z,985.43
2024-01-18T00:25:47.983Z,985.47
2024-01-18T00:26:47.947Z,985.46
2024-01-18T00:27:47.961Z,985.44
2024-01-18T00:28:47.941Z,985.42
2024-01-18T00:29:47.921Z,985.50
2024-01-18T00:30:47.932Z,985.54
2024-01-18T00:31:47.963Z,985.66
2024-01-18T00:32:47.923Z,985.67
2024-01-18T00:33:47.899Z,985.59
2024-01-18T00:34:47.871Z,985.58
2024-01-18T00:35:48.029Z,985.62
2024-01-18T00:36:47.891Z,985.62
2024-01-18T00:37:47.850Z,985.71
2024-01-18T00:38:47.827Z,985.76
2024-01-18T00:39:47.826Z,985.79
2024-01-18T00:40:47.800Z,985.83
2024-01-18T00:41:47.785Z,985.91
2024-01-18T00:42:47.802Z,985.91
2024-01-18T00:43:47.760Z,985.88
2024-01-18T00:44:47.821Z,985.89
2024-01-18T00:45:47.769Z,985.89
2024-01-18T00:46:47.771Z,985.94
2024-01-18T00:47:47.771Z,985.97
2024-01-18T00:48:47.931Z,985.94
2024-01-18T00:49:47.806Z,985.90
2024-01-18T00:50:47.713Z,986.02
2024-01-18T00:51:47.736Z,986.06
2024-01-18T00:52:47.675Z,986.13
2024-01-18T00:53:47.678Z,986.11
2024-01-18T00:54:47.677Z,986.11
2024-01-18T00:55:47.641Z,986.12
2024-01-18T00:56:47.623Z,986.13
2024-01-18T00:57:47.624Z,986.11
2024-01-18T00:58:47.600Z,986.08
2024-01-18T00:59:47.616Z,986.10
2024-01-18T01:00:47.673Z,986.15
2024-01-18T01:01:47.589Z,986.12
2024-01-18T01:02:47.560Z,986.15
2024-01-18T01:03:47.556Z,986.15
2024-01-18T01:04:47.644Z,986.17
2024-01-18T01:05:47.542Z,986.21
2024-01-18T01:06:47.528Z,986.23
2024-01-18T01:07:47.550Z,986.21
2024-01-18T01:08:47.498Z,986.30
2024-01-18T01:09:47.517Z,986.30
2024-01-18T01:10:47.477Z,986.35
2024-01-18T01:11:47.466Z,986.32
2024-01-18T01:12:47.482Z,986.36
2024-01-18T01:13:47.445Z,986.33
2024-01-18T01:14:47.468Z,986.42
2024-01-18T01:15:47.545Z,986.47
2024-01-18T01:16:47.415Z,986.48
2024-01-18T01:17:47.434Z,986.47
2024-01-18T01:18:47.449Z,986.55
2024-01-18T01:19:47.438Z,986.67
2024-01-18T01:20:47.371Z,986.62
2024-01-18T01:21:47.364Z,986.67
2024-01-18T01:22:47.379Z,986.70
2024-01-18T01:23:47.339Z,986.74
2024-01-18T01:24:47.326Z,986.74
2024-01-18T01:25:47.344Z,986.78
2024-01-18T01:26:47.306Z,986.79
2024-01-18T01:27:47.327Z,986.83
2024-01-18T01:28:47.318Z,986.78
2024-01-18T01:29:47.306Z,986.71
2024-01-18T01:30:47.306Z,986.69
2024-01-18T01:31:47.250Z,986.73
2024-01-18T01:32:47.319Z,986.69
2024-01-18T01:33:47.289Z,986.66
2024-01-18T01:34:47.295Z,986.62
2024-01-18T01:35:47.209Z,986.66
2024-01-18T01:36:47.206Z,986.66
2024-01-18T01:37:47.215Z,986.61
2024-01-18T01:38:47.201Z,986.58
2024-01-18T01:39:47.163Z,986.58
2024-01-18T01:40:47.162Z,986.56
2024-01-18T01:41:47.171Z,986.61
2024-01-18T01:42:47.141Z,986.60
2024-01-18T01:43:47.146Z,986.63
2024-01-18T01:44:47.120Z,986.60
2024-01-18T01:45:47.124Z,986.63
2024-01-18T01:46:47.138Z,986.68
2024-01-18T01:47:47.130Z,986.72
2024-01-18T01:48:47.107Z,986.72
2024-01-18T01:49:47.154Z,986.71
2024-01-18T01:50:47.076Z,986.72
2024-01-18T01:51:47.093Z,986.74
2024-01-18T01:52:47.066Z,986.81
2024-01-18T01:53:47.015Z,986.86
2024-01-18T01:54:47.045Z,986.86
2024-01-18T01:55:47.009Z,986.87
2024-01-18T01:56:47.012Z,986.93
2024-01-18T01:57:47.022Z,986.87
2024-01-18T01:58:46.970Z,986.92
2024-01-18T01:59:46.949Z,986.92
2024-01-18T02:00:47.020Z,986.95
2024-01-18T02:01:46.947Z,986.95
2024-01-18T02:02:46.950Z,986.95
2024-01-18T02:03:47.051Z,986.92
2024-01-18T02:04:46.899Z,986.96
2024-01-18T02:05:46.906Z,986.94
2024-01-18T02:06:47.004Z,986.92
2024-01-18T02:07:46.904Z,986.92
2024-01-18T02:08:46.852Z,986.92
2024-01-18T02:09:46.914Z,986.91
2024-01-18T02:10:46.837Z,986.92
2024-01-18T02:11:46.824Z,986.95
2024-01-18T02:12:46.840Z,986.89
2024-01-18T02:13:46.856Z,986.85
2024-01-18T02:14:46.794Z,986.85
2024-01-18T02:15:46.832Z,986.80
2024-01-18T02:16:46.787Z,986.77
2024-01-18T02:17:46.810Z,986.80
2024-01-18T02:18:46.833Z,986.77
2024-01-18T02:19:46.848Z,986.89
2024-01-18T02:20:46.727Z,986.88
2024-01-18T02:21:46.723Z,986.90
2024-01-18T02:22:46.761Z,986.95
2024-01-18T02:23:46.720Z,987.03
2024-01-18T02:24:46.718Z,987.08
2024-01-18T02:25:46.686Z,987.10
2024-01-18T02:26:46.665Z,987.11
2024-01-18T02:27:46.694Z,987.19
2024-01-18T02:28:46.669Z,987.22
2024-01-18T02:29:46.654Z,987.22
2024-01-18T02:30:46.720Z,987.19
2024-01-18T02:31:46.611Z,987.16
2024-01-18T02:32:46.652Z,987.19
2024-01-18T02:33:46.708Z,987.28
2024-01-18T02:34:46.651Z,987.27
2024-01-18T02:35:46.568Z,987.27
2024-01-18T02:36:46.732Z,987.21
2024-01-18T02:37:46.553Z,987.23
2024-01-18T02:38:46.545Z,987.32
2024-01-18T02:39:46.561Z,987.37
2024-01-18T02:40:46.515Z,987.37
2024-01-18T02:41:46.514Z,987.43
2024-01-18T02:42:46.561Z,987.36
2024-01-18T02:43:46.485Z,987.34
2024-01-18T02:44:46.517Z,987.29
2024-01-18T02:45:46.566Z,987.24
2024-01-18T02:46:46.461Z,987.22
2024-01-18T02:47:46.509Z,987.23
2024-01-18T02:48:46.462Z,987.26
2024-01-18T02:49:46.477Z,987.22
2024-01-18T02:50:46.406Z,987.25
2024-01-18T02:51:46.395Z,987.25
2024-01-18T02:52:46.402Z,987.22
2024-01-18T02:53:46.375Z,987.29
2024-01-18T02:54:46.461Z,987.29
2024-01-18T02:55:46.352Z,987.35
2024-01-18T02:56:46.336Z,987.40
2024-01-18T02:57:46.416Z,987.48
2024-01-18T02:58:46.351Z,987.51
2024-01-18T02:59:46.307Z,987.50
2024-01-18T03:00:46.361Z,987.48
2024-01-18T03:01:46.354Z,987.49
2024-01-18T03:02:46.309Z,987.55
2024-01-18T03:03:46.544Z,987.57
2024-01-18T03:04:46.270Z,987.57
2024-01-18T03:05:46.241Z,987.55
2024-01-18T03:06:46.307Z,987.61
2024-01-18T03:07:46.272Z,987.62
2024-01-18T03:08:46.235Z,987.61
2024-01-18T03:09:46.228Z,987.58
2024-01-18T03:10:46.193Z,987.54
2024-01-18T03:11:46.183Z,987.52
2024-01-18T03:12:46.198Z,987.51
2024-01-18T03:13:46.197Z,987.53
2024-01-18T03:14:46.149Z,987.46
2024-01-18T03:15:46.158Z,987.47
2024-01-18T03:16:46.124Z,987.47
2024-01-18T03:17:46.246Z,987.46
2024-01-18T03:18:46.225Z,987.40
2024-01-18T03:19:46.158Z,987.45
2024-01-18T03:20:46.079Z,987.44
2024-01-18T03:21:46.152Z,987.46
2024-01-18T03:22:46.054Z,987.50
2024-01-18T03:23:46.050Z,987.56
2024-01-18T03:24:46.113Z,987.61
2024-01-18T03:25:46.037Z,987.63
2024-01-18T03:26:46.028Z,987.59
2024-01-18T03:27:46.023Z,987.65
2024-01-18T03:28:46.018Z,987.67
2024-01-18T03:29:46.021Z,987.57
2024-01-18T03:30:46.054Z,987.63
2024-01-18T03:31:45.974Z,987.62
2024-01-18T03:32:46.007Z,987.66
2024-01-18T03:33:46.199Z,987.68
2024-01-18T03:34:46.022Z,987.73
2024-01-18T03:35:45.923Z,987.71
2024-01-18T03:36:45.975Z,987.68
2024-01-18T03:37:45.907Z,987.64
2024-01-18T03:38:45.916Z,987.73
2024-01-18T03:39:45.900Z,987.68
2024-01-18T03:40:45.897Z,987.75
2024-01-18T03:41:45.859Z,987.76
2024-01-18T03:42:45.907Z,987.78
2024-01-18T03:43:45.867Z,987.86
2024-01-18T03:44:45.829Z,987.88
2024-01-18T03:45:45.869Z,987.90
2024-01-18T03:46:45.810Z,987.90
2024-01-18T03:47:48.315Z,987.93
2024-01-18T03:48:45.841Z,987.98
2024-01-18T03:49:45.864Z,987.95
2024-01-18T03:50:45.794Z,988.03
2024-01-18T03:51:45.800Z,987.99
2024-01-18T03:52:45.752Z,988.04
2024-01-18T03:53:45.742Z,988.03
2024-01-18T03:54:45.727Z,988.05
2024-01-18T03:55:45.745Z,988.15
2024-01-18T03:56:45.705Z,988.12
2024-01-18T03:57:45.733Z,988.07
2024-01-18T03:58:45.692Z,988.13
2024-01-18T03:59:45.683Z,988.10
2024-01-18T04:00:45.755Z,988.11
2024-01-18T04:01:45.685Z,988.21
2024-01-18T04:02:45.659Z,988.21
2024-01-18T04:03:45.700Z,988.27
2024-01-18T04:04:45.621Z,988.23
2024-01-18T04:05:45.769Z,988.19
2024-01-18T04:06:45.700Z,988.27
2024-01-18T04:07:45.637Z,988.24
2024-01-18T04:08:45.576Z,988.19
2024-01-18T04:09:45.661Z,988.25
2024-01-18T04:10:45.594Z,988.21
2024-01-18T04:11:45.548Z,988.27
2024-01-18T04:12:45.663Z,988.23
2024-01-18T04:13:45.522Z,988.24
2024-01-18T04:14:45.544Z,988.24
2024-01-18T04:15:45.599Z,988.28
2024-01-18T04:16:45.507Z,988.23
2024-01-18T04:17:45.543Z,988.30
2024-01-18T04:18:45.579Z,988.26
2024-01-18T04:19:45.532Z,988.27
2024-01-18T04:20:45.454Z,988.33
2024-01-18T04:21:45.568Z,988.29
2024-01-18T04:22:45.426Z,988.23
2024-01-18T04:23:45.423Z,988.25
2024-01-18T04:24:45.459Z,988.24
2024-01-18T04:25:45.395Z,988.28
2024-01-18T04:26:45.391Z,988.26
2024-01-18T04:27:45.492Z,988.34
2024-01-18T04:28:45.377Z,988.34
2024-01-18T04:29:45.350Z,988.30
2024-01-18T04:30:45.444Z,988.31
2024-01-18T04:31:45.362Z,988.34
2024-01-18T04:32:45.364Z,988.35
2024-01-18T04:33:45.410Z,988.28
2024-01-18T04:34:45.328Z,988.27
2024-01-18T04:35:45.287Z,988.29
2024-01-18T04:36:45.319Z,988.28
2024-01-18T04:37:45.300Z,988.33
2024-01-18T04:38:45.264Z,988.40
2024-01-18T04:39:45.283Z,988.42
2024-01-18T04:40:45.253Z,988.42
2024-01-18T04:41:45.269Z,988.45
2024-01-18T04:42:45.269Z,988.47
2024-01-18T04:43:45.202Z,988.50
2024-01-18T04:44:45.225Z,988.42
2024-01-18T04:45:45.322Z,988.37
2024-01-18T04:46:45.170Z,988.37
2024-01-18T04:47:45.178Z,988.45
2024-01-18T04:48:45.220Z,988.42
2024-01-18T04:49:45.232Z,988.46
2024-01-18T04:50:45.135Z,988.48
2024-01-18T04:51:45.188Z,988.54
2024-01-18T04:52:45.107Z,988.56
2024-01-18T04:53:45.119Z,988.47
2024-01-18T04:54:45.181Z,988.55
2024-01-18T04:55:45.076Z,988.53
2024-01-18T04:56:45.066Z,988.53
2024-01-18T04:57:45.070Z,988.46
2024-01-18T04:58:45.044Z,988.51
2024-01-18T04:59:45.069Z,988.43
2024-01-18T05:00:45.090Z,988.42
2024-01-18T05:01:45.011Z,988.53
2024-01-18T05:02:45.009Z,988.46
2024-01-18T05:03:45.028Z,988.44
2024-01-18T05:04:45.147Z,988.56
2024-01-18T05:05:45.101Z,988.53
2024-01-18T05:06:45.077Z,988.43
2024-01-18T05:07:45.096Z,988.50
2024-01-18T05:08:44.946Z,988.48
2024-01-18T05:09:45.007Z,988.46
2024-01-18T05:10:44.920Z,988.49
2024-01-18T05:11:44.904Z,988.49
2024-01-18T05:12:45.111Z,988.49
2024-01-18T05:13:44.884Z,988.53
2024-01-18T05:14:44.909Z,988.63
2024-01-18T05:15:44.929Z,988.64
2024-01-18T05:16:44.874Z,988.62
2024-01-18T05:17:44.925Z,988.59
2024-01-18T05:18:44.849Z,988.68
2024-01-18T05:19:44.969Z,988.71
2024-01-18T05:20:44.817Z,988.70
2024-01-18T05:21:44.857Z,988.77
2024-01-18T05:22:44.999Z,988.70
2024-01-18T05:23:44.771Z,988.76
2024-01-18T05:24:44.786Z,988.74
2024-01-18T05:25:44.796Z,988.77
2024-01-18T05:26:44.750Z,988.82
2024-01-18T05:27:44.829Z,988.80
2024-01-18T05:28:44.719Z,988.85
2024-01-18T05:29:44.704Z,988.79
2024-01-18T05:30:44.893Z,988.73
2024-01-18T05:31:44.708Z,988.71
2024-01-18T05:32:44.739Z,988.75
2024-01-18T05:33:44.736Z,988.72
2024-01-18T05:34:44.688Z,988.67
2024-01-18T05:35:44.667Z,988.68
2024-01-18T05:36:44.742Z,988.65
2024-01-18T05:37:44.620Z,988.63
2024-01-18T05:38:44.620Z,988.73
2024-01-18T05:39:44.610Z,988.77
2024-01-18T05:40:44.617Z,988.80
2024-01-18T05:41:44.620Z,988.89
2024-01-18T05:42:44.625Z,988.88
2024-01-18T05:43:44.569Z,988.90
2024-01-18T05:44:44.547Z,989.07
2024-01-18T05:45:44.648Z,989.13
2024-01-18T05:46:44.530Z,989.03
2024-01-18T05:47:44.558Z,989.11
2024-01-18T05:48:44.564Z,989.05
2024-01-18T05:49:44.547Z,988.97
2024-01-18T05:50:44.481Z,989.02
2024-01-18T05:51:44.619Z,989.06
2024-01-18T05:52:44.460Z,989.05
2024-01-18T05:53:44.455Z,989.08
2024-01-18T05:54:44.466Z,989.10
2024-01-18T05:55:44.427Z,989.24
2024-01-18T05:56:44.454Z,989.24
2024-01-18T05:57:44.564Z,989.29
2024-01-18T05:58:46.602Z,989.36
2024-01-18T05:59:44.381Z,989.41
2024-01-18T06:00:44.533Z,989.42
2024-01-18T06:01:44.388Z,989.45
2024-01-18T06:02:44.357Z,989.45
2024-01-18T06:03:44.523Z,989.44
2024-01-18T06:04:44.361Z,989.42
2024-01-18T06:05:44.322Z,989.46
2024-01-18T06:06:44.425Z,989.44
2024-01-18T06:07:44.300Z,989.42
2024-01-18T06:08:44.305Z,989.45
2024-01-18T06:09:44.365Z,989.40
2024-01-18T06:10:44.267Z,989.47
2024-01-18T06:11:44.281Z,989.47
2024-01-18T06:12:44.299Z,989.52
2024-01-18T06:13:44.261Z,989.49
2024-01-18T06:14:45.358Z,989.59
2024-01-18T06:15:44.295Z,989.65
2024-01-18T06:16:44.205Z,989.65
2024-01-18T06:17:44.255Z,989.64
2024-01-18T06:18:44.468Z,989.69
2024-01-18T06:19:44.272Z,989.70
2024-01-18T06:20:44.198Z,989.79
2024-01-18T06:21:44.176Z,989.75
2024-01-18T06:22:44.173Z,989.78
2024-01-18T06:23:44.134Z,989.77
2024-01-18T06:24:44.194Z,989.80
2024-01-18T06:25:44.139Z,989.85
2024-01-18T06:26:44.128Z,989.85
2024-01-18T06:27:44.115Z,989.79
2024-01-18T06:28:44.093Z,989.83
2024-01-18T06:29:44.098Z,989.86
2024-01-18T06:30:44.159Z,989.83
2024-01-18T06:31:44.072Z,989.89
2024-01-18T06:32:44.118Z,989.92
2024-01-18T06:33:44.113Z,989.94
2024-01-18T06:34:44.088Z,989.89
2024-01-18T06:35:44.034Z,989.91
2024-01-18T06:36:44.063Z,989.92
2024-01-18T06:37:43.993Z,989.95
2024-01-18T06:38:43.973Z,989.88
2024-01-18T06:39:43.971Z,989.86
2024-01-18T06:40:44.497Z,989.88
2024-01-18T06:41:43.978Z,989.84
2024-01-18T06:42:43.987Z,989.85
2024-01-18T06:43:43.917Z,989.88
2024-01-18T06:44:43.913Z,989.86
2024-01-18T06:45:43.950Z,989.95
2024-01-18T06:46:43.939Z,989.97
2024-01-18T06:47:43.941Z,989.93
2024-01-18T06:48:43.885Z,989.98
2024-01-18T06:49:43.850Z,989.93
2024-01-18T06:50:43.848Z,989.97
2024-01-18T06:51:43.860Z,989.93
2024-01-18T06:52:43.849Z,989.92
2024-01-18T06:53:43.838Z,989.93
2024-01-18T06:54:43.907Z,989.95
2024-01-18T06:55:43.843Z,989.97
2024-01-18T06:56:43.874Z,990.00
2024-01-18T06:57:43.981Z,990.03
2024-01-18T06:58:43.765Z,990.12
2024-01-18T06:59:43.767Z,990.09
2024-01-18T07:00:43.822Z,990.12
2024-01-18T07:01:43.774Z,990.14
2024-01-18T07:02:43.750Z,990.20
2024-01-18T07:03:44.275Z,990.18
2024-01-18T07:04:44.333Z,990.11
2024-01-18T07:05:43.720Z,990.12
2024-01-18T07:06:43.709Z,990.18
2024-01-18T07:07:43.717Z,990.15
2024-01-18T07:08:43.651Z,990.12
2024-01-18T07:09:43.754Z,990.09
2024-01-18T07:10:43.631Z,990.05
2024-01-18T07:11:43.615Z,990.05
2024-01-18T07:12:43.737Z,990.05
2024-01-18T07:13:43.646Z,990.08
2024-01-18T07:14:44.622Z,990.09
2024-01-18T07:15:43.636Z,990.14
2024-01-18T07:16:43.564Z,990.14
2024-01-18T07:17:43.596Z,990.12
2024-01-18T07:18:43.622Z,990.11
2024-01-18T07:19:43.593Z,990.12
2024-01-18T07:20:43.518Z,990.11
2024-01-18T07:21:43.692Z,990.14
2024-01-18T07:22:43.529Z,990.11
2024-01-18T07:23:43.490Z,990.10
2024-01-18T07:24:43.560Z,990.19
2024-01-18T07:25:43.474Z,990.24
2024-01-18T07:26:43.460Z,990.18
2024-01-18T07:27:43.504Z,990.18
2024-01-18T07:28:43.470Z,990.17
2024-01-18T07:29:43.422Z,990.12
2024-01-18T07:30:43.513Z,990.14
2024-01-18T07:31:46.661Z,990.15
2024-01-18T07:32:43.424Z,990.21
2024-01-18T07:33:43.549Z,990.20
2024-01-18T07:34:43.462Z,990.27
2024-01-18T07:35:43.434Z,990.22
2024-01-18T07:36:43.440Z,990.24
2024-01-18T07:37:43.345Z,990.23
2024-01-18T07:38:43.366Z,990.28
2024-01-18T07:39:43.501Z,990.25
2024-01-18T07:40:43.328Z,990.30
2024-01-18T07:41:43.297Z,990.29
2024-01-18T07:42:43.359Z,990.33
2024-01-18T07:43:43.277Z,990.36
2024-01-18T07:44:43.290Z,990.33
2024-01-18T07:45:43.394Z,990.27
2024-01-18T07:46:43.250Z,990.31
2024-01-18T07:47:43.249Z,990.26
2024-01-18T07:48:43.254Z,990.25
2024-01-18T07:49:44.807Z,990.27
2024-01-18T07:50:43.278Z,990.30
2024-01-18T07:51:43.246Z,990.24
2024-01-18T07:52:43.175Z,990.26
2024-01-18T07:53:43.186Z,990.27
2024-01-18T07:54:43.288Z,990.30
2024-01-18T07:55:43.195Z,990.25
2024-01-18T07:56:43.146Z,990.37
2024-01-18T07:57:43.224Z,990.38
2024-01-18T07:58:43.127Z,990.39
2024-01-18T07:59:43.144Z,990.41
2024-01-18T08:00:43.191Z,990.35
2024-01-18T08:01:43.141Z,990.36
2024-01-18T08:02:43.095Z,990.35
2024-01-18T08:03:43.122Z,990.36
2024-01-18T08:04:43.107Z,990.32
2024-01-18T08:05:43.143Z,990.35
2024-01-18T08:06:43.087Z,990.36
2024-01-18T08:07:43.038Z,990.43
2024-01-18T08:08:43.010Z,990.44
2024-01-18T08:09:43.107Z,990.43
2024-01-18T08:10:42.997Z,990.48
2024-01-18T08:11:42.985Z,990.58
2024-01-18T08:12:43.033Z,990.59
2024-01-18T08:13:42.993Z,990.60
2024-01-18T08:14:42.969Z,990.65
2024-01-18T08:15:43.015Z,990.63
2024-01-18T08:16:42.927Z,990.61
2024-01-18T08:17:42.944Z,990.61
2024-01-18T08:18:43.012Z,990.58
2024-01-18T08:19:43.043Z,990.64
2024-01-18T08:20:42.920Z,990.62
2024-01-18T08:21:42.965Z,990.68
2024-01-18T08:22:42.874Z,990.66
2024-01-18T08:23:42.851Z,990.65
2024-01-18T08:24:43.002Z,990.61
2024-01-18T08:25:42.858Z,990.64
2024-01-18T08:26:42.846Z,990.70
2024-01-18T08:27:42.907Z,990.69
2024-01-18T08:28:42.829Z,990.71
2024-01-18T08:29:42.783Z,990.75
2024-01-18T08:30:42.845Z,990.79
2024-01-18T08:31:42.781Z,990.70
2024-01-18T08:32:42.786Z,990.72
2024-01-18T08:33:42.787Z,990.74
2024-01-18T08:34:45.650Z,990.74
2024-01-18T08:35:42.761Z,990.71
2024-01-18T08:36:42.812Z,990.76
2024-01-18T08:37:42.906Z,990.75
2024-01-18T08:38:42.701Z,990.75
2024-01-18T08:39:42.717Z,990.72
2024-01-18T08:40:42.702Z,990.75
2024-01-18T08:41:42.659Z,990.82
2024-01-18T08:42:42.728Z,990.80
2024-01-18T08:43:42.639Z,990.84
2024-01-18T08:44:42.648Z,990.91
2024-01-18T08:45:42.840Z,990.82
2024-01-18T08:46:42.619Z,990.84
2024-01-18T08:47:42.669Z,990.85
2024-01-18T08:48:42.682Z,990.87
2024-01-18T08:49:42.585Z,990.83
2024-01-18T08:50:42.598Z,990.89
2024-01-18T08:51:42.619Z,990.89
2024-01-18T08:52:42.553Z,990.87
2024-01-18T08:53:42.563Z,990.92
2024-01-18T08:54:42.654Z,990.98
2024-01-18T08:55:42.560Z,990.95
2024-01-18T08:56:42.504Z,991.04
2024-01-18T08:57:42.544Z,991.04
2024-01-18T08:58:42.487Z,991.02
2024-01-18T08:59:42.473Z,990.99
2024-01-18T09:00:42.602Z,991.05
2024-01-18T09:01:42.512Z,991.04
2024-01-18T09:02:42.445Z,991.04
2024-01-18T09:03:42.466Z,991.05
2024-01-18T09:04:43.032Z,991.11
2024-01-18T09:05:42.442Z,991.12
2024-01-18T09:06:42.493Z,991.11
2024-01-18T09:07:42.467Z,991.11
2024-01-18T09:08:42.394Z,991.18
2024-01-18T09:09:42.425Z,991.13
2024-01-18T09:10:42.372Z,991.17
2024-01-18T09:11:42.464Z,991.19
2024-01-18T09:12:42.345Z,991.17
2024-01-18T09:13:42.459Z,991.19
2024-01-18T09:14:42.493Z,991.14
2024-01-18T09:15:42.445Z,991.19
2024-01-18T09:16:42.466Z,991.19
2024-01-18T09:17:42.308Z,991.22
2024-01-18T09:18:53.328Z,991.26
2024-01-18T09:19:43.307Z,991.22
2024-01-18T09:20:42.277Z,991.19
2024-01-18T09:21:42.357Z,991.23
2024-01-18T09:22:44.596Z,991.29
2024-01-18T09:23:42.218Z,991.21
2024-01-18T09:24:42.230Z,991.29
2024-01-18T09:25:42.232Z,991.32
2024-01-18T09:26:42.205Z,991.39
2024-01-18T09:27:42.246Z,991.39
2024-01-18T09:28:42.167Z,991.39
2024-01-18T09:29:42.153Z,991.43
2024-01-18T09:30:44.430Z,991.44
2024-01-18T09:31:43.448Z,991.50
2024-01-18T09:32:42.149Z,991.52
2024-01-18T09:33:42.149Z,991.60
2024-01-18T09:34:42.097Z,991.59
2024-01-18T09:35:42.614Z,991.62
2024-01-18T09:36:42.231Z,991.59
2024-01-18T09:37:42.094Z,991.55
2024-01-18T09:38:42.060Z,991.57
2024-01-18T09:39:42.111Z,991.53
2024-01-18T09:40:42.043Z,991.59
2024-01-18T09:41:42.065Z,991.59
2024-01-18T09:42:42.078Z,991.60
2024-01-18T09:43:42.041Z,991.64
2024-01-18T09:44:41.990Z,991.68
2024-01-18T09:45:42.074Z,991.64
2024-01-18T09:46:41.977Z,991.70
2024-01-18T09:47:41.989Z,991.66
2024-01-18T09:48:41.986Z,991.65
2024-01-18T09:49:41.966Z,991.74
2024-01-18T09:50:41.927Z,991.75
2024-01-18T09:51:41.992Z,991.75
2024-01-18T09:52:41.914Z,991.77
2024-01-18T09:53:41.899Z,991.83
2024-01-18T09:54:42.035Z,991.81
2024-01-18T09:55:41.876Z,991.83
2024-01-18T09:56:41.889Z,991.89
2024-01-18T09:57:41.905Z,991.84
2024-01-18T09:58:41.847Z,991.92
2024-01-18T09:59:41.880Z,991.90
2024-01-18T10:00:41.839Z,991.98
2024-01-18T10:01:41.888Z,991.98
2024-01-18T10:02:41.799Z,992.00
2024-01-18T10:03:41.957Z,991.94
2024-01-18T10:04:41.805Z,992.06
2024-01-18T10:05:41.881Z,992.00
2024-01-18T10:06:41.914Z,992.10
2024-01-18T10:07:41.957Z,992.03
2024-01-18T10:08:41.739Z,992.01
2024-01-18T10:09:41.784Z,992.00
2024-01-18T10:10:41.715Z,992.01
2024-01-18T10:11:41.728Z,992.03
2024-01-18T10:12:41.787Z,991.99
2024-01-18T10:13:41.702Z,991.99
2024-01-18T10:14:41.696Z,992.01
2024-01-18T10:15:41.692Z,992.04
2024-01-18T10:16:41.652Z,992.06
2024-01-18T10:17:41.681Z,992.04
2024-01-18T10:18:41.708Z,992.05
2024-01-18T10:19:41.657Z,992.00
2024-01-18T10:20:41.605Z,991.97
2024-01-18T10:21:41.617Z,992.03
2024-01-18T10:22:41.607Z,992.07
2024-01-18T10:23:41.578Z,992.03
2024-01-18T10:24:41.591Z,992.04
2024-01-18T10:25:41.570Z,991.96
2024-01-18T10:26:41.549Z,991.92
2024-01-18T10:27:41.605Z,991.99
2024-01-18T10:28:41.548Z,991.96
2024-01-18T10:29:41.543Z,991.98
2024-01-18T10:30:41.515Z,992.02
2024-01-18T10:31:41.553Z,992.07
2024-01-18T10:32:41.528Z,992.11
2024-01-18T10:33:41.597Z,992.15
2024-01-18T10:34:41.648Z,992.11
2024-01-18T10:35:41.450Z,992.14
2024-01-18T10:36:41.579Z,992.14
2024-01-18T10:37:41.427Z,992.20
2024-01-18T10:38:42.406Z,992.17
2024-01-18T10:39:41.729Z,992.21
2024-01-18T10:40:41.396Z,992.21
2024-01-18T10:41:41.409Z,992.24
2024-01-18T10:42:41.429Z,992.18
2024-01-18T10:43:41.384Z,992.25
2024-01-18T10:44:41.643Z,992.20
2024-01-18T10:45:41.469Z,992.25
2024-01-18T10:46:41.369Z,992.23
2024-01-18T10:47:41.398Z,992.23
2024-01-18T10:48:41.404Z,992.25
2024-01-18T10:49:41.332Z,992.27
2024-01-18T10:50:41.294Z,992.28
2024-01-18T10:51:41.930Z,992.24
2024-01-18T10:52:41.329Z,992.26
2024-01-18T10:53:41.267Z,992.31
2024-01-18T10:54:46.923Z,992.29
2024-01-18T10:55:42.259Z,992.26
2024-01-18T10:56:41.250Z,992.40
2024-01-18T10:57:41.302Z,992.39
2024-01-18T10:58:41.265Z,992.44
2024-01-18T10:59:41.201Z,992.47
2024-01-18T11:00:41.270Z,992.43
2024-01-18T11:01:41.214Z,992.47
2024-01-18T11:02:41.201Z,992.46
2024-01-18T11:03:41.242Z,992.42
2024-01-18T11:04:41.166Z,992.44
2024-01-18T11:05:41.120Z,992.45
2024-01-18T11:06:41.188Z,992.47
2024-01-18T11:07:41.136Z,992.53
2024-01-18T11:08:41.134Z,992.49
2024-01-18T11:09:41.137Z,992.57
2024-01-18T11:10:41.089Z,992.55
2024-01-18T11:11:41.063Z,992.51
2024-01-18T11:12:42.996Z,992.58
2024-01-18T11:13:41.041Z,992.55
2024-01-18T11:14:41.046Z,992.62
2024-01-18T11:15:41.032Z,992.59
2024-01-18T11:16:41.020Z,992.56
2024-01-18T11:17:41.113Z,992.53
2024-01-18T11:18:42.951Z,992.55
2024-01-18T11:19:41.002Z,992.62
2024-01-18T11:20:40.971Z,992.59
2024-01-18T11:21:41.001Z,992.57
2024-01-18T11:22:40.963Z,992.57
2024-01-18T11:23:40.936Z,992.53
2024-01-18T11:24:43.303Z,992.52
2024-01-18T11:25:40.908Z,992.55
2024-01-18T11:26:40.904Z,992.56
2024-01-18T11:27:41.009Z,992.61
2024-01-18T11:28:40.885Z,992.61
2024-01-18T11:29:40.913Z,992.65
2024-01-18T11:30:43.313Z,992.67
2024-01-18T11:31:40.843Z,992.64
2024-01-18T11:32:40.894Z,992.64
2024-01-18T11:33:40.905Z,992.69
2024-01-18T11:34:40.827Z,992.64
2024-01-18T11:35:40.834Z,992.65
2024-01-18T11:36:42.286Z,992.66
2024-01-18T11:37:40.782Z,992.63
2024-01-18T11:38:40.803Z,992.66
2024-01-18T11:39:40.782Z,992.68
2024-01-18T11:40:40.748Z,992.69
2024-01-18T11:41:40.773Z,992.72
2024-01-18T11:42:40.808Z,992.72
2024-01-18T11:43:40.738Z,992.83
2024-01-18T11:44:40.706Z,992.72
2024-01-18T11:45:40.754Z,992.73
2024-01-18T11:46:40.683Z,992.80
2024-01-18T11:47:40.790Z,992.78
2024-01-18T11:48:40.723Z,992.72
2024-01-18T11:49:40.738Z,992.74
2024-01-18T11:50:40.677Z,992.77
2024-01-18T11:51:40.801Z,992.78
2024-01-18T11:52:40.628Z,992.75
2024-01-18T11:53:40.671Z,992.78
2024-01-18T11:54:40.716Z,992.76
2024-01-18T11:55:40.620Z,992.77
2024-01-18T11:56:40.630Z,992.77
2024-01-18T11:57:40.611Z,992.72
2024-01-18T11:58:40.564Z,992.74
2024-01-18T11:59:40.596Z,992.78
2024-01-18T12:00:40.655Z,992.76
2024-01-18T12:01:40.550Z,992.68
2024-01-18T12:02:40.510Z,992.70
2024-01-18T12:03:40.546Z,992.72
2024-01-18T12:04:40.650Z,992.67
2024-01-18T12:05:40.545Z,992.70
2024-01-18T12:06:40.667Z,992.63
2024-01-18T12:07:40.746Z,992.78
2024-01-18T12:08:40.444Z,992.70
2024-01-18T12:09:40.489Z,992.68
2024-01-18T12:10:40.447Z,992.71
2024-01-18T12:11:40.413Z,992.69
2024-01-18T12:12:40.503Z,992.73
2024-01-18T12:13:40.425Z,992.73
2024-01-18T12:14:40.391Z,992.71
2024-01-18T12:15:40.431Z,992.72
2024-01-18T12:16:40.367Z,992.73
2024-01-18T12:17:40.373Z,992.70
2024-01-18T12:18:40.398Z,992.73
2024-01-18T12:19:40.382Z,992.69
2024-01-18T12:20:40.351Z,992.64
2024-01-18T12:21:40.378Z,992.70
2024-01-18T12:22:40.298Z,992.65
2024-01-18T12:23:40.307Z,992.63
2024-01-18T12:24:40.320Z,992.65
2024-01-18T12:25:40.272Z,992.63
2024-01-18T12:26:40.259Z,992.65
2024-01-18T12:27:40.331Z,992.72
2024-01-18T12:28:40.267Z,992.69